Time;durP1;ratioP1;P1;durP2;ratioP2;P2;SDS_P1;SDS_P2;PMS_P1;PMS_P2;Temp;Humidity;BMP_temperature;BMP_pressure;BME280_temperature;BME280_humidity;BME280_pressure;Samples;Min_cycle;Max_cycle;Signal;HPM_P1;HPM_P2
2023/06/30 00:01:19;;;;;;;9.37;8.47;;;17.00;99.90;;;;;;5094802;28;20197;-68
2023/06/30 00:03:45;;;;;;;8.70;7.93;;;17.10;99.90;;;;;;5094330;28;20205;-67
2023/06/30 00:06:11;;;;;;;8.67;7.97;;;17.00;99.90;;;;;;5093919;28;20207;-68
2023/06/30 00:08:36;;;;;;;7.53;6.93;;;17.10;99.90;;;;;;5076277;28;20294;-68
2023/06/30 00:11:02;;;;;;;7.53;6.83;;;17.00;99.90;;;;;;5094357;28;20276;-68
2023/06/30 00:13:28;;;;;;;7.07;6.57;;;17.00;99.90;;;;;;5094284;28;20182;-68
2023/06/30 00:15:54;;;;;;;7.47;6.97;;;16.90;99.90;;;;;;5094576;28;20539;-68
2023/06/30 00:18:20;;;;;;;7.20;6.70;;;16.90;99.90;;;;;;5094443;28;20172;-68
2023/06/30 00:20:46;;;;;;;7.43;6.87;;;16.80;99.90;;;;;;5085084;28;20186;-68
2023/06/30 00:23:13;;;;;;;5.97;5.57;;;16.80;99.90;;;;;;5073866;28;20240;-68
2023/06/30 00:25:39;;;;;;;5.90;5.50;;;16.70;99.90;;;;;;5073862;28;20205;-68
2023/06/30 00:28:04;;;;;;;5.60;4.80;;;16.60;99.90;;;;;;5074178;28;20304;-68
2023/06/30 00:30:30;;;;;;;5.70;5.30;;;16.50;99.90;;;;;;5073809;28;20201;-67
2023/06/30 00:32:56;;;;;;;5.27;4.97;;;16.40;99.90;;;;;;5073560;28;20243;-67
2023/06/30 00:35:22;;;;;;;5.50;5.10;;;16.40;99.90;;;;;;5073773;28;20205;-67
2023/06/30 00:37:47;;;;;;;9.40;5.70;;;16.30;99.90;;;;;;5073747;28;20643;-68
2023/06/30 00:40:16;;;;;;;5.03;4.73;;;16.30;99.90;;;;;;5055841;28;20664;-67
2023/06/30 00:42:41;;;;;;;5.10;4.80;;;16.20;99.90;;;;;;5073151;28;20213;-68
2023/06/30 00:45:07;;;;;;;5.50;5.20;;;16.20;99.90;;;;;;5073569;28;20263;-68
2023/06/30 00:47:33;;;;;;;5.50;5.20;;;16.20;99.90;;;;;;5073757;28;20260;-69
2023/06/30 00:49:58;;;;;;;5.33;5.03;;;16.10;99.90;;;;;;5075369;28;20289;-68
2023/06/30 00:52:25;;;;;;;5.20;4.90;;;16.00;99.90;;;;;;5093496;28;20193;-68
2023/06/30 00:54:51;;;;;;;5.27;4.97;;;15.90;99.90;;;;;;5093773;28;20567;-69
2023/06/30 00:57:16;;;;;;;5.43;5.03;;;15.80;99.90;;;;;;5093430;28;20173;-69
2023/06/30 00:59:42;;;;;;;6.03;5.40;;;15.80;99.90;;;;;;5093485;28;20177;-69
2023/06/30 01:02:22;;;;;;;5.40;5.10;;;15.80;99.90;;;;;;5074850;28;20204;-69
2023/06/30 01:05:01;;;;;;;5.97;5.37;;;15.70;99.90;;;;;;5093101;28;20280;-69
2023/06/30 01:07:36;;;;;;;5.50;5.20;;;15.70;99.90;;;;;;5093609;28;20581;-68
2023/06/30 01:10:14;;;;;;;5.97;5.37;;;15.70;99.90;;;;;;5093556;28;20208;-69
2023/06/30 01:12:41;;;;;;;6.30;5.67;;;15.70;99.90;;;;;;5093026;28;20565;-69
2023/06/30 01:15:07;;;;;;;5.60;5.17;;;15.70;99.90;;;;;;5093176;28;20256;-69
2023/06/30 01:17:34;;;;;;;5.67;5.30;;;15.80;99.90;;;;;;5075188;28;20277;-68
2023/06/30 01:20:04;;;;;;;7.07;5.47;;;15.80;99.90;;;;;;5072858;28;20174;-67
2023/06/30 01:22:39;;;;;;;6.93;6.23;;;15.80;99.90;;;;;;5072593;28;20217;-69
2023/06/30 01:25:09;;;;;;;6.20;5.70;;;15.80;99.90;;;;;;5054841;28;20690;-69
2023/06/30 01:27:36;;;;;;;6.23;5.70;;;15.70;99.90;;;;;;5072881;28;20601;-69
2023/06/30 01:30:05;;;;;;;6.83;6.43;;;15.70;99.90;;;;;;5072675;28;20691;-69
2023/06/30 01:32:31;;;;;;;7.17;6.53;;;15.60;99.90;;;;;;5072346;28;20669;-68
2023/06/30 01:34:57;;;;;;;7.20;6.60;;;15.70;99.90;;;;;;5072639;28;20278;-69
2023/06/30 01:37:22;;;;;;;8.20;7.37;;;15.70;99.90;;;;;;5072314;28;20186;-69
2023/06/30 01:39:48;;;;;;;9.87;7.53;;;15.70;99.90;;;;;;5072718;28;20257;-69
2023/06/30 01:42:14;;;;;;;9.27;8.47;;;15.60;99.90;;;;;;5072375;28;20237;-69
2023/06/30 01:44:41;;;;;;;9.60;8.90;;;15.70;99.90;;;;;;5083513;28;20730;-69
2023/06/30 01:47:09;;;;;;;11.40;9.40;;;15.70;99.90;;;;;;5092682;28;20204;-69
2023/06/30 01:49:35;;;;;;;10.60;9.60;;;15.60;99.90;;;;;;5092593;28;20166;-69
2023/06/30 01:52:02;;;;;;;10.87;9.77;;;15.70;99.90;;;;;;5092446;28;20229;-69
2023/06/30 01:54:27;;;;;;;10.70;9.47;;;15.70;99.90;;;;;;5090537;28;20174;-68
2023/06/30 01:56:53;;;;;;;12.97;9.23;;;15.70;99.90;;;;;;5092345;28;20546;-69
2023/06/30 01:59:19;;;;;;;12.63;9.93;;;15.60;99.90;;;;;;5091787;28;20174;-69
2023/06/30 02:01:45;;;;;;;11.43;9.80;;;15.70;99.90;;;;;;5091622;28;20197;-69
2023/06/30 02:04:11;;;;;;;11.07;9.87;;;15.50;99.90;;;;;;5092135;28;20169;-69
2023/06/30 02:06:36;;;;;;;11.63;9.70;;;15.50;99.90;;;;;;5092465;28;20539;-69
2023/06/30 02:09:03;;;;;;;14.60;8.73;;;15.50;99.90;;;;;;5073987;28;20180;-68
2023/06/30 02:11:28;;;;;;;9.97;9.07;;;15.40;99.90;;;;;;5057289;28;20205;-68
2023/06/30 02:13:54;;;;;;;11.00;9.40;;;15.40;99.90;;;;;;5072511;28;20389;-72
2023/06/30 02:16:19;;;;;;;12.53;9.67;;;15.40;99.90;;;;;;5073179;28;20178;-74
2023/06/30 02:18:45;;;;;;;14.30;10.00;;;15.40;99.90;;;;;;5073068;28;20185;-75
2023/06/30 02:21:10;;;;;;;11.20;10.13;;;15.50;99.90;;;;;;5072905;28;20204;-75
2023/06/30 02:23:36;;;;;;;11.40;10.20;;;15.50;99.90;;;;;;5072617;28;20661;-75
2023/06/30 02:26:02;;;;;;;10.37;9.37;;;15.50;99.90;;;;;;5072608;28;20193;-74
2023/06/30 02:28:27;;;;;;;13.23;11.27;;;15.50;99.90;;;;;;5055094;28;20217;-73
2023/06/30 02:30:54;;;;;;;12.23;10.47;;;15.50;99.90;;;;;;5072638;28;20201;-73
2023/06/30 02:33:19;;;;;;;13.33;10.70;;;15.50;99.90;;;;;;5072845;28;20184;-71
2023/06/30 02:35:45;;;;;;;14.43;11.20;;;15.50;99.90;;;;;;5072588;28;20174;-71
2023/06/30 02:38:11;;;;;;;15.07;10.73;;;15.50;99.90;;;;;;5079615;28;20207;-73
2023/06/30 02:40:36;;;;;;;16.20;12.07;;;15.50;99.90;;;;;;5092899;28;20277;-74
2023/06/30 02:43:02;;;;;;;13.83;11.67;;;15.40;99.90;;;;;;5129113;22;20216;-72
2023/06/30 02:45:28;;;;;;;16.33;11.40;;;15.40;99.90;;;;;;5112031;28;20255;-71
2023/06/30 02:47:54;;;;;;;17.93;11.80;;;15.40;99.90;;;;;;5111696;28;20200;-71
2023/06/30 02:50:28;;;;;;;15.37;11.30;;;15.40;99.90;;;;;;5111122;28;20604;-71
2023/06/30 02:52:54;;;;;;;19.00;11.07;;;15.40;99.90;;;;;;5111388;28;20427;-72
2023/06/30 02:55:20;;;;;;;13.07;11.77;;;15.40;99.90;;;;;;5094128;28;20296;-71
2023/06/30 02:57:45;;;;;;;16.00;11.50;;;15.40;99.90;;;;;;5090490;28;20172;-71
2023/06/30 03:00:12;;;;;;;19.23;11.50;;;15.40;99.90;;;;;;5091355;28;20181;-71
2023/06/30 03:02:37;;;;;;;15.73;13.20;;;15.40;99.90;;;;;;5091053;28;20672;-71
2023/06/30 03:05:04;;;;;;;18.87;12.20;;;15.30;99.90;;;;;;5072985;28;20208;-71
2023/06/30 03:07:30;;;;;;;14.97;12.83;;;15.30;99.90;;;;;;5091345;28;20546;-71
2023/06/30 03:09:56;;;;;;;14.17;11.47;;;15.40;99.90;;;;;;5096760;28;20173;-71
2023/06/30 03:12:21;;;;;;;16.63;12.60;;;15.40;99.90;;;;;;5111404;28;20590;-71
2023/06/30 03:14:47;;;;;;;15.53;12.10;;;15.50;99.90;;;;;;5111274;28;20254;-71
2023/06/30 03:17:13;;;;;;;18.27;13.10;;;15.50;99.90;;;;;;5111618;28;20200;-71
2023/06/30 03:19:38;;;;;;;19.00;13.47;;;15.40;99.90;;;;;;5111709;28;20172;-72
2023/06/30 03:22:04;;;;;;;15.57;13.00;;;15.40;99.90;;;;;;5111351;28;20246;-71
2023/06/30 03:24:29;;;;;;;17.73;12.67;;;15.40;99.90;;;;;;5111159;28;20623;-71
2023/06/30 03:26:55;;;;;;;14.67;12.07;;;15.40;99.90;;;;;;5092950;28;20302;-71
2023/06/30 03:29:21;;;;;;;19.87;12.73;;;15.40;99.90;;;;;;5111424;28;20662;-71
2023/06/30 03:31:47;;;;;;;21.13;13.00;;;15.40;99.90;;;;;;5111153;28;20188;-71
2023/06/30 03:34:12;;;;;;;17.53;12.70;;;15.40;99.90;;;;;;5111408;28;20161;-71
2023/06/30 03:36:38;;;;;;;16.60;12.87;;;15.40;99.90;;;;;;5111483;28;20177;-71
2023/06/30 03:39:05;;;;;;;26.17;13.63;;;15.40;99.90;;;;;;5094781;28;20184;-71
2023/06/30 03:41:30;;;;;;;23.17;14.43;;;15.50;99.90;;;;;;5090831;28;20170;-71
2023/06/30 03:43:56;;;;;;;21.80;13.83;;;15.50;99.90;;;;;;5090515;28;20253;-71
2023/06/30 03:46:22;;;;;;;16.77;13.87;;;15.50;99.90;;;;;;5089645;28;20258;-71
2023/06/30 03:48:47;;;;;;;21.73;15.50;;;15.60;99.90;;;;;;5090779;28;20176;-72
2023/06/30 03:51:13;;;;;;;18.90;14.57;;;15.50;99.90;;;;;;5090058;28;20174;-71
2023/06/30 03:53:41;;;;;;;16.53;14.30;;;15.50;99.90;;;;;;5090240;28;20193;-71
2023/06/30 03:56:07;;;;;;;22.80;15.50;;;15.40;99.90;;;;;;5090889;28;20178;-71
2023/06/30 03:58:32;;;;;;;25.37;16.27;;;15.40;99.90;;;;;;5090986;28;20166;-71
2023/06/30 04:00:58;;;;;;;26.50;15.97;;;15.40;99.90;;;;;;5092725;28;20173;-71
2023/06/30 04:03:24;;;;;;;25.77;14.87;;;15.40;99.90;;;;;;5094236;28;20196;-71
2023/06/30 04:05:50;;;;;;;23.63;16.00;;;15.40;99.90;;;;;;5101653;28;20236;-71
2023/06/30 04:08:15;;;;;;;24.20;16.27;;;15.40;99.90;;;;;;5114946;28;20169;-71
2023/06/30 04:10:41;;;;;;;28.00;16.67;;;15.50;99.90;;;;;;5114665;28;20214;-71
2023/06/30 04:13:07;;;;;;;27.67;16.07;;;15.50;99.90;;;;;;5086881;28;20197;-71
2023/06/30 04:15:33;;;;;;;21.47;14.77;;;15.60;99.90;;;;;;5076205;28;20652;-71
2023/06/30 04:17:58;;;;;;;26.80;15.63;;;15.60;99.90;;;;;;5094184;28;20169;-71
2023/06/30 04:20:25;;;;;;;26.40;16.03;;;15.50;99.90;;;;;;5076070;28;20573;-71
2023/06/30 04:22:51;;;;;;;25.20;14.60;;;15.50;99.90;;;;;;5093649;28;20193;-71
2023/06/30 04:25:17;;;;;;;23.90;14.97;;;15.40;99.90;;;;;;5094228;28;20205;-71
2023/06/30 04:27:43;;;;;;;25.30;15.50;;;15.40;99.90;;;;;;5094140;28;20169;-71
2023/06/30 04:30:09;;;;;;;22.10;15.07;;;15.40;99.90;;;;;;5093978;28;20658;-71
2023/06/30 04:32:34;;;;;;;27.00;15.07;;;15.40;99.90;;;;;;5093612;28;20272;-71
2023/06/30 04:35:00;;;;;;;24.97;15.37;;;15.30;99.90;;;;;;5112203;28;20190;-71
2023/06/30 04:37:29;;;;;;;24.63;14.67;;;15.40;99.90;;;;;;5114660;28;20545;-71
2023/06/30 04:39:58;;;;;;;22.47;14.90;;;15.50;99.90;;;;;;5114628;28;20259;-71
2023/06/30 04:42:27;;;;;;;24.23;13.50;;;15.50;99.90;;;;;;5113925;28;20205;-72
2023/06/30 04:44:52;;;;;;;18.80;14.03;;;15.40;99.90;;;;;;5114107;28;20573;-71
2023/06/30 04:47:18;;;;;;;23.93;14.23;;;15.40;99.90;;;;;;5114195;28;20201;-71
2023/06/30 04:49:43;;;;;;;30.13;15.90;;;15.40;99.90;;;;;;5093919;28;20175;-72
2023/06/30 04:52:09;;;;;;;25.70;14.40;;;15.30;99.90;;;;;;5111987;28;20196;-71
2023/06/30 04:54:35;;;;;;;24.13;14.70;;;15.40;99.90;;;;;;5086281;28;20279;-71
2023/06/30 04:57:00;;;;;;;22.23;15.03;;;15.40;99.90;;;;;;5093432;28;20671;-71
2023/06/30 04:59:26;;;;;;;25.40;14.93;;;15.40;99.90;;;;;;5093463;28;20173;-71
2023/06/30 05:01:51;;;;;;;23.73;13.70;;;15.40;99.90;;;;;;5103174;28;20249;-71
2023/06/30 05:04:17;;;;;;;19.63;14.27;;;15.40;99.90;;;;;;5113518;28;20172;-71
2023/06/30 05:06:43;;;;;;;22.70;14.23;;;15.40;99.90;;;;;;5113543;28;20217;-71
2023/06/30 05:09:09;;;;;;;21.00;14.63;;;15.40;99.90;;;;;;5113612;28;20255;-71
2023/06/30 05:11:35;;;;;;;28.77;15.20;;;15.50;99.90;;;;;;5112788;28;20161;-71
2023/06/30 05:14:00;;;;;;;21.20;15.57;;;15.50;99.90;;;;;;5113046;28;20228;-71
2023/06/30 05:16:26;;;;;;;26.13;13.43;;;15.60;99.90;;;;;;5113590;28;20175;-70
2023/06/30 05:18:52;;;;;;;19.67;12.03;;;15.60;99.90;;;;;;5113230;28;20634;-71
2023/06/30 05:21:18;;;;;;;16.50;12.10;;;15.60;99.90;;;;;;5113416;28;20568;-71
2023/06/30 05:23:43;;;;;;;17.70;12.70;;;15.70;99.90;;;;;;5113090;28;20169;-71
2023/06/30 05:26:10;;;;;;;20.53;11.93;;;15.70;99.90;;;;;;5113397;28;20196;-71
2023/06/30 05:28:35;;;;;;;24.07;13.53;;;15.70;99.90;;;;;;5111925;28;20240;-71
2023/06/30 05:31:02;;;;;;;13.53;12.10;;;15.70;99.90;;;;;;5074702;28;20368;-71
2023/06/30 05:33:27;;;;;;;20.87;11.67;;;15.80;99.90;;;;;;5092482;28;20217;-71
2023/06/30 05:35:54;;;;;;;32.73;29.93;;;15.80;99.90;;;;;;5092735;28;20201;-71
2023/06/30 05:38:19;;;;;;;19.03;12.07;;;15.90;99.90;;;;;;5092828;28;20214;-71
2023/06/30 05:40:45;;;;;;;15.23;11.33;;;15.90;99.90;;;;;;5092490;28;20556;-71
2023/06/30 05:43:11;;;;;;;15.80;10.40;;;16.00;99.90;;;;;;5092171;28;20216;-71
2023/06/30 05:45:37;;;;;;;14.43;10.20;;;16.10;99.90;;;;;;5092500;28;20228;-71
2023/06/30 05:48:03;;;;;;;14.00;10.27;;;16.10;99.90;;;;;;5092470;28;20172;-71
2023/06/30 05:50:29;;;;;;;10.97;9.83;;;16.10;99.90;;;;;;5092487;28;20173;-71
2023/06/30 05:52:55;;;;;;;14.37;10.80;;;16.10;99.90;;;;;;5091835;28;20224;-71
2023/06/30 05:55:20;;;;;;;16.90;9.80;;;16.10;99.90;;;;;;5074188;28;20177;-71
2023/06/30 05:57:46;;;;;;;16.13;9.90;;;16.20;99.90;;;;;;5085641;28;20177;-71
2023/06/30 06:00:12;;;;;;;16.70;9.53;;;16.20;99.90;;;;;;5112935;28;20514;-71
2023/06/30 06:02:38;;;;;;;15.73;9.83;;;16.20;99.90;;;;;;5112541;28;20214;-72
2023/06/30 06:05:04;;;;;;;13.33;9.13;;;16.10;99.90;;;;;;5113415;28;20275;-72
2023/06/30 06:07:29;;;;;;;16.57;10.93;;;16.20;99.90;;;;;;5113289;28;20165;-72
2023/06/30 06:09:55;;;;;;;16.57;9.03;;;16.30;99.90;;;;;;5113215;28;20571;-72
2023/06/30 06:12:21;;;;;;;11.80;9.47;;;16.30;99.90;;;;;;5113047;28;20191;-72
2023/06/30 06:14:46;;;;;;;14.43;8.70;;;16.40;99.90;;;;;;5095467;28;20185;-71
2023/06/30 06:17:12;;;;;;;10.83;8.30;;;16.50;99.90;;;;;;5097014;28;20181;-71
2023/06/30 06:19:37;;;;;;;14.03;8.50;;;16.70;99.90;;;;;;5092543;28;20531;-70
2023/06/30 06:22:03;;;;;;;13.53;8.23;;;16.90;99.90;;;;;;5097782;28;20208;-69
2023/06/30 06:24:29;;;;;;;10.30;9.20;;;17.00;99.90;;;;;;5111770;28;20192;-69
2023/06/30 06:26:54;;;;;;;12.53;8.33;;;17.30;99.90;;;;;;5111818;28;20169;-70
2023/06/30 06:29:22;;;;;;;12.33;8.20;;;17.60;99.90;;;;;;5112090;28;20215;-70
2023/06/30 06:31:52;;;;;;;8.03;7.23;;;17.80;99.90;;;;;;5111871;28;20277;-70
2023/06/30 06:34:21;;;;;;;10.70;9.53;;;18.00;99.90;;;;;;5093616;28;20176;-70
2023/06/30 06:36:47;;;;;;;7.20;6.40;;;18.00;99.90;;;;;;5111731;28;20165;-70
2023/06/30 06:39:14;;;;;;;8.30;6.60;;;18.30;99.90;;;;;;5093738;28;20650;-70
2023/06/30 06:41:39;;;;;;;9.67;6.20;;;18.70;99.90;;;;;;5111629;28;20196;-70
2023/06/30 06:44:05;;;;;;;8.20;4.87;;;18.90;99.90;;;;;;5111565;28;20192;-70
2023/06/30 06:46:31;;;;;;;6.63;6.03;;;19.10;99.90;;;;;;5111789;28;20211;-70
2023/06/30 06:48:56;;;;;;;10.93;6.73;;;19.40;99.90;;;;;;5111359;28;20180;-70
2023/06/30 06:51:23;;;;;;;6.13;5.63;;;19.90;99.90;;;;;;5078820;28;20543;-70
2023/06/30 06:53:49;;;;;;;6.90;5.43;;;20.40;99.90;;;;;;5072689;28;20227;-70
2023/06/30 06:56:14;;;;;;;6.30;5.30;;;20.60;99.90;;;;;;5091443;28;20173;-70
2023/06/30 06:58:40;;;;;;;5.20;4.70;;;20.70;99.90;;;;;;5091001;28;20174;-71
2023/06/30 07:01:06;;;;;;;8.52;5.13;;;20.70;99.90;;;;;;5091164;28;20549;-70
2023/06/30 07:03:31;;;;;;;7.70;5.40;;;20.80;99.90;;;;;;5091223;28;20205;-71
2023/06/30 07:05:58;;;;;;;5.85;4.43;;;21.10;99.90;;;;;;5091253;28;20237;-71
2023/06/30 07:08:24;;;;;;;4.53;4.17;;;21.00;99.90;;;;;;5091666;28;20169;-69
2023/06/30 07:10:50;;;;;;;8.73;3.70;;;21.30;99.90;;;;;;5091400;28;20176;-71
2023/06/30 07:13:18;;;;;;;6.90;4.30;;;21.40;99.90;;;;;;5091374;28;20193;-71
2023/06/30 07:15:48;;;;;;;6.25;4.78;;;21.70;99.90;;;;;;5091677;28;20188;-70
2023/06/30 07:18:17;;;;;;;6.93;4.55;;;21.60;99.90;;;;;;5096834;28;20183;-70
2023/06/30 07:20:44;;;;;;;4.25;3.85;;;21.90;99.90;;;;;;5112193;28;20173;-71
2023/06/30 07:23:09;;;;;;;4.20;3.90;;;21.90;99.90;;;;;;5111624;28;20241;-71
2023/06/30 07:25:35;;;;;;;6.63;3.70;;;21.80;99.90;;;;;;5112218;28;20730;-70
2023/06/30 07:28:01;;;;;;;5.07;3.97;;;21.80;99.90;;;;;;5111945;28;20632;-70
2023/06/30 07:30:27;;;;;;;8.07;4.38;;;22.00;99.90;;;;;;5112306;28;20173;-70
2023/06/30 07:32:54;;;;;;;4.28;3.80;;;22.20;99.90;;;;;;5111554;28;20663;-70
2023/06/30 07:35:22;;;;;;;6.82;3.95;;;22.60;99.90;;;;;;5100594;28;20544;-70
2023/06/30 07:37:49;;;;;;;4.18;3.78;;;22.90;99.90;;;;;;5095675;28;20169;-70
2023/06/30 07:40:15;;;;;;;4.93;4.30;;;23.20;99.90;;;;;;5095781;28;20177;-69
2023/06/30 07:42:41;;;;;;;6.00;3.90;;;23.60;99.90;;;;;;5106262;28;20299;-70
2023/06/30 07:45:17;;;;;;;5.90;3.85;;;23.70;99.90;;;;;;5116036;28;20279;-70
2023/06/30 07:47:44;;;;;;;3.78;3.47;;;23.70;99.90;;;;;;5112374;28;20205;-70
2023/06/30 07:50:15;;;;;;;8.35;3.95;;;23.70;99.90;;;;;;5095553;28;20845;-70
2023/06/30 07:52:48;;;;;;;5.43;4.63;;;23.90;99.90;;;;;;5076742;28;20229;-70
2023/06/30 07:55:18;;;;;;;5.25;4.22;;;24.00;99.90;;;;;;5095419;28;20169;-70
2023/06/30 07:57:45;;;;;;;4.20;3.88;;;23.90;99.90;;;;;;5094977;28;20170;-70
2023/06/30 08:00:15;;;;;;;3.90;3.60;;;23.50;99.90;;;;;;5095178;28;20170;-70
2023/06/30 08:02:41;;;;;;;8.57;4.43;;;23.00;99.90;;;;;;5102865;28;20196;-70
2023/06/30 08:05:07;;;;;;;3.75;3.40;;;23.00;99.90;;;;;;5115184;28;20280;-70
2023/06/30 08:07:33;;;;;;;4.53;3.78;;;23.10;99.90;;;;;;5115434;28;20199;-70
2023/06/30 08:09:59;;;;;;;3.90;3.50;;;23.10;99.90;;;;;;5115275;28;20667;-70
2023/06/30 08:12:24;;;;;;;5.47;3.70;;;23.30;99.90;;;;;;5096854;28;20230;-70
2023/06/30 08:14:52;;;;;;;5.35;3.28;;;23.60;99.90;;;;;;5115082;28;20169;-70
2023/06/30 08:17:17;;;;;;;4.40;3.28;;;24.00;99.90;;;;;;5115352;28;20200;-69
2023/06/30 08:19:43;;;;;;;4.07;3.78;;;24.20;99.90;;;;;;5115465;28;20207;-71
2023/06/30 08:22:16;;;;;;;5.60;3.75;;;24.00;99.90;;;;;;5106528;28;20652;-70
2023/06/30 08:24:42;;;;;;;3.20;3.00;;;23.90;99.90;;;;;;5094318;28;20184;-68
2023/06/30 08:27:08;;;;;;;4.90;3.30;;;23.90;99.90;;;;;;5094523;28;20169;-71
2023/06/30 08:29:35;;;;;;;4.57;2.90;;;23.80;99.90;;;;;;5094852;28;20648;-71
2023/06/30 08:32:01;;;;;;;3.08;2.88;;;24.10;99.90;;;;;;5094370;28;20217;-71
2023/06/30 08:34:26;;;;;;;4.38;3.05;;;24.20;99.90;;;;;;5094338;28;20965;-70
2023/06/30 08:36:53;;;;;;;3.00;2.72;;;24.60;99.90;;;;;;5094092;28;20161;-70
2023/06/30 08:39:19;;;;;;;3.47;3.17;;;24.60;99.90;;;;;;5094469;28;20197;-71
2023/06/30 08:41:47;;;;;;;4.03;3.28;;;24.00;99.90;;;;;;5094737;28;20642;-71
2023/06/30 08:44:13;;;;;;;5.00;3.05;;;24.00;99.90;;;;;;5094121;28;20178;-72
2023/06/30 08:46:39;;;;;;;3.40;3.20;;;24.00;99.90;;;;;;5092761;28;20205;-71
2023/06/30 08:49:05;;;;;;;3.92;2.88;;;24.10;99.90;;;;;;5093904;28;20172;-70
2023/06/30 08:51:31;;;;;;;3.72;3.38;;;24.10;99.90;;;;;;5094047;28;20174;-71
2023/06/30 08:53:58;;;;;;;6.28;3.20;;;24.00;99.90;;;;;;5093616;28;20514;-71
2023/06/30 08:56:25;;;;;;;3.17;2.97;;;24.10;99.90;;;;;;5075901;28;20264;-71
2023/06/30 08:58:51;;;;;;;3.47;3.00;;;24.30;99.90;;;;;;5086549;28;20176;-71
2023/06/30 09:01:18;;;;;;;3.50;3.20;;;24.60;99.90;;;;;;5114340;28;20763;-71
2023/06/30 09:03:44;;;;;;;4.25;3.05;;;25.10;99.90;;;;;;5113843;28;20176;-71
2023/06/30 09:06:11;;;;;;;3.75;3.03;;;25.50;99.90;;;;;;5113943;28;20678;-71
2023/06/30 09:08:51;;;;;;;3.65;3.22;;;25.80;99.90;;;;;;5114090;28;20168;-71
2023/06/30 09:11:19;;;;;;;2.90;2.70;;;26.00;99.90;;;;;;5112654;28;20573;-71
2023/06/30 09:13:46;;;;;;;3.58;2.80;;;26.40;99.90;;;;;;5113685;28;20169;-71
2023/06/30 09:16:17;;;;;;;4.07;3.63;;;26.30;99.90;;;;;;5114102;28;20172;-71
2023/06/30 09:18:45;;;;;;;3.05;2.78;;;26.70;99.90;;;;;;5113939;28;20535;-71
2023/06/30 09:21:12;;;;;;;3.55;3.25;;;26.70;99.90;;;;;;5113679;28;20196;-71
2023/06/30 09:23:38;;;;;;;3.20;2.80;;;26.70;99.90;;;;;;5113276;28;20203;-70
2023/06/30 09:26:15;;;;;;;4.00;3.70;;;26.70;99.90;;;;;;5113206;28;20350;-71
2023/06/30 09:28:44;;;;;;;3.67;3.38;;;26.70;99.90;;;;;;5114021;28;20165;-71
2023/06/30 09:31:10;;;;;;;5.32;3.22;;;27.00;99.90;;;;;;5113055;28;20177;-71
2023/06/30 09:33:36;;;;;;;4.15;3.28;;;27.10;99.90;;;;;;5113390;28;20184;-71
2023/06/30 09:36:03;;;;;;;3.97;2.80;;;27.50;99.90;;;;;;5113430;28;20230;-71
2023/06/30 09:38:29;;;;;;;3.10;2.88;;;27.70;99.90;;;;;;5113336;28;20183;-70
2023/06/30 09:40:56;;;;;;;2.92;2.83;;;27.30;99.90;;;;;;5113027;28;20529;-71
2023/06/30 09:43:23;;;;;;;3.25;3.03;;;27.20;99.90;;;;;;5112906;28;20212;-70
2023/06/30 09:46:00;;;;;;;2.80;2.60;;;26.80;99.90;;;;;;5113022;28;20712;-69
2023/06/30 09:48:39;;;;;;;2.90;2.70;;;26.60;99.90;;;;;;5113210;28;20169;-69
2023/06/30 09:51:07;;;;;;;6.25;2.78;;;26.60;99.90;;;;;;5112243;28;20658;-70
2023/06/30 09:53:40;;;;;;;2.63;2.42;;;26.90;99.90;;;;;;5096552;28;20280;-69
2023/06/30 09:56:07;;;;;;;3.03;2.72;;;27.30;99.90;;;;;;5092871;28;20157;-70
2023/06/30 09:58:33;;;;;;;2.80;2.60;;;27.40;99.90;;;;;;5092395;28;20170;-70
2023/06/30 10:00:59;;;;;;;3.10;2.80;;;27.50;99.90;;;;;;5092577;28;20637;-70
2023/06/30 10:03:25;;;;;;;3.35;3.15;;;27.60;99.90;;;;;;5092332;28;20186;-68
2023/06/30 10:05:52;;;;;;;2.97;2.67;;;27.80;99.90;;;;;;5092481;28;20197;-68
2023/06/30 10:08:21;;;;;;;3.00;2.80;;;27.80;99.90;;;;;;5092577;28;20173;-70
2023/06/30 10:10:49;;;;;;;3.03;2.80;;;27.30;99.90;;;;;;5092480;28;20162;-70
2023/06/30 10:13:18;;;;;;;3.05;2.50;;;26.80;99.90;;;;;;5092162;28;20594;-70
2023/06/30 10:15:45;;;;;;;4.53;2.90;;;26.40;99.90;;;;;;5092162;28;20229;-71
2023/06/30 10:18:12;;;;;;;4.03;3.50;;;26.50;99.90;;;;;;5092241;28;20537;-70
2023/06/30 10:20:38;;;;;;;2.97;2.78;;;26.80;99.90;;;;;;5083535;28;20176;-70
2023/06/30 10:23:04;;;;;;;2.80;2.60;;;27.00;99.90;;;;;;5111848;28;20718;-70
2023/06/30 10:25:33;;;;;;;3.30;3.00;;;27.30;99.90;;;;;;5112704;28;20567;-70
2023/06/30 10:27:59;;;;;;;3.63;3.33;;;27.90;99.90;;;;;;5112580;28;20200;-70
2023/06/30 10:30:25;;;;;;;2.65;2.45;;;28.60;99.90;;;;;;5112776;28;20616;-70
2023/06/30 10:32:51;;;;;;;3.42;2.85;;;28.90;99.90;;;;;;5112095;28;20188;-69
2023/06/30 10:35:18;;;;;;;4.13;3.75;;;28.70;99.90;;;;;;5112247;28;20204;-70
2023/06/30 10:37:44;;;;;;;3.63;3.17;;;28.30;99.90;;;;;;5112151;28;20176;-70
2023/06/30 10:40:26;;;;;;;2.80;2.60;;;28.20;99.90;;;;;;5111138;28;20184;-69
2023/06/30 10:42:57;;;;;;;4.78;4.00;;;28.40;99.90;;;;;;5111342;28;20398;-70
2023/06/30 10:45:32;;;;;;;4.65;3.03;;;27.80;99.90;;;;;;5093278;28;20215;-70
2023/06/30 10:48:08;;;;;;;2.88;2.63;;;27.60;99.90;;;;;;5105835;28;20193;-70
2023/06/30 10:50:44;;;;;;;3.42;3.22;;;27.00;99.90;;;;;;5091522;28;20626;-69
2023/06/30 10:53:20;;;;;;;3.05;2.80;;;26.70;99.90;;;;;;5090793;28;20185;-70
2023/06/30 10:55:46;;;;;;;3.58;2.97;;;27.00;99.90;;;;;;5091264;28;20201;-70
2023/06/30 10:58:22;;;;;;;2.92;2.72;;;27.20;99.90;;;;;;5091327;28;20176;-70
2023/06/30 11:01:04;;;;;;;3.60;3.35;;;26.90;99.90;;;;;;5091278;28;20524;-70
2023/06/30 11:03:56;;;;;;;3.35;3.03;;;26.60;99.90;;;;;;5072863;28;20204;-70
2023/06/30 11:06:23;;;;;;;3.75;3.55;;;26.80;99.90;;;;;;5052695;28;20252;-70
2023/06/30 11:09:03;;;;;;;2.95;2.75;;;26.80;99.90;;;;;;5091015;28;20174;-70
2023/06/30 11:11:29;;;;;;;3.80;3.05;;;27.20;99.90;;;;;;5072695;28;20252;-70
2023/06/30 11:14:04;;;;;;;3.45;3.15;;;27.90;99.90;;;;;;5095311;28;20540;-69
2023/06/30 11:16:50;;;;;;;3.10;2.90;;;28.00;99.90;;;;;;5100076;28;20232;-70
2023/06/30 11:19:25;;;;;;;2.92;2.83;;;27.60;99.90;;;;;;5090667;28;20255;-70
2023/06/30 11:22:22;;;;;;;4.43;4.22;;;27.30;99.90;;;;;;5090696;28;20546;-70
2023/06/30 11:24:48;;;;;;;4.05;3.75;;;27.00;99.90;;;;;;5090698;28;20215;-70
2023/06/30 11:27:15;;;;;;;6.90;3.75;;;27.10;99.90;;;;;;5090925;28;20161;-68
2023/06/30 11:29:41;;;;;;;2.90;2.80;;;27.20;99.90;;;;;;5090912;28;20175;-70
2023/06/30 11:32:07;;;;;;;2.70;2.58;;;27.30;99.90;;;;;;5090754;28;20193;-70
2023/06/30 11:34:33;;;;;;;2.95;2.75;;;27.30;99.90;;;;;;5090653;28;20715;-70
2023/06/30 11:37:07;;;;;;;3.20;2.90;;;27.50;99.90;;;;;;5090503;28;20169;-70
2023/06/30 11:39:35;;;;;;;3.65;2.90;;;27.70;99.90;;;;;;5103645;28;20519;-70
2023/06/30 11:42:00;;;;;;;3.88;3.55;;;28.00;99.90;;;;;;5110666;28;20204;-70
2023/06/30 11:44:26;;;;;;;3.28;2.97;;;28.30;99.90;;;;;;5099618;28;20177;-70
2023/06/30 11:46:52;;;;;;;5.53;3.10;;;28.20;99.90;;;;;;5090788;28;20205;-70
2023/06/30 11:49:18;;;;;;;3.50;3.03;;;28.20;99.90;;;;;;5090631;28;20564;-70
2023/06/30 11:51:47;;;;;;;3.78;2.88;;;28.60;99.90;;;;;;5090617;28;20201;-70
2023/06/30 11:54:13;;;;;;;4.72;3.08;;;28.60;99.90;;;;;;5090788;28;20637;-70
2023/06/30 11:56:39;;;;;;;3.53;3.33;;;28.20;99.90;;;;;;5090834;28;20174;-71
2023/06/30 11:59:05;;;;;;;3.50;2.60;;;28.00;99.90;;;;;;5090426;28;20182;-69
2023/06/30 12:01:31;;;;;;;3.00;2.80;;;27.90;99.90;;;;;;5090641;28;20220;-69
2023/06/30 12:04:17;;;;;;;2.90;2.70;;;27.30;99.90;;;;;;5090414;28;20178;-70
2023/06/30 12:06:46;;;;;;;5.32;4.38;;;27.00;99.90;;;;;;5054988;28;20209;-70
2023/06/30 12:09:12;;;;;;;7.95;5.13;;;27.10;99.90;;;;;;5072392;28;20178;-70
2023/06/30 12:11:41;;;;;;;2.97;2.78;;;27.00;99.90;;;;;;5095726;28;20192;-69
2023/06/30 12:14:08;;;;;;;3.25;3.05;;;26.40;99.90;;;;;;5110533;28;20192;-69
2023/06/30 12:16:48;;;;;;;3.78;3.47;;;26.00;99.90;;;;;;5092790;28;20200;-71
2023/06/30 12:19:14;;;;;;;3.33;3.05;;;26.00;99.90;;;;;;5103412;28;20184;-69
2023/06/30 12:21:59;;;;;;;3.97;3.63;;;26.30;99.90;;;;;;5091959;28;20196;-70
2023/06/30 12:24:29;;;;;;;4.07;3.45;;;26.90;99.90;;;;;;5094069;28;20170;-69
2023/06/30 12:26:55;;;;;;;3.25;2.95;;;27.30;99.90;;;;;;5093927;28;20471;-69
2023/06/30 12:29:22;;;;;;;4.03;3.60;;;27.30;99.90;;;;;;5094054;28;20251;-69
2023/06/30 12:31:48;;;;;;;4.40;4.13;;;27.30;99.90;;;;;;5075732;28;20201;-69
2023/06/30 12:34:33;;;;;;;5.90;3.25;;;27.30;99.90;;;;;;5093882;28;20170;-70
2023/06/30 12:36:59;;;;;;;4.60;3.78;;;27.10;99.90;;;;;;5096867;28;20188;-69
2023/06/30 12:39:25;;;;;;;3.47;3.17;;;26.90;99.90;;;;;;5111855;28;20260;-69
2023/06/30 12:41:51;;;;;;;3.90;3.70;;;27.00;99.90;;;;;;5113592;28;20200;-69